sensor_id;sensor_type;location;lat;lon;timestamp;P1;durP1;ratioP1;P2;durP2;ratioP2
23288;SDS011;11813;50.834;4.280;2023-04-01T00:01:39;8.23;;;3.40;;
23288;SDS011;11813;50.834;4.280;2023-04-01T00:04:05;11.50;;;3.23;;
23288;SDS011;11813;50.834;4.280;2023-04-01T00:06:30;9.27;;;2.83;;
23288;SDS011;11813;50.834;4.280;2023-04-01T00:08:56;10.07;;;2.87;;
23288;SDS011;11813;50.834;4.280;2023-04-01T00:11:21;10.67;;;3.43;;
23288;SDS011;11813;50.834;4.280;2023-04-01T00:13:47;9.20;;;3.13;;
23288;SDS011;11813;50.834;4.280;2023-04-01T00:16:13;10.77;;;3.13;;
23288;SDS011;11813;50.834;4.280;2023-04-01T00:18:38;8.60;;;3.00;;
23288;SDS011;11813;50.834;4.280;2023-04-01T00:21:04;11.20;;;3.13;;
23288;SDS011;11813;50.834;4.280;2023-04-01T00:23:30;12.67;;;2.70;;
23288;SDS011;11813;50.834;4.280;2023-04-01T00:25:56;6.27;;;2.37;;
23288;SDS011;11813;50.834;4.280;2023-04-01T00:28:24;8.70;;;2.77;;
23288;SDS011;11813;50.834;4.280;2023-04-01T00:30:51;8.40;;;3.03;;
23288;SDS011;11813;50.834;4.280;2023-04-01T00:33:16;8.83;;;2.53;;
23288;SDS011;11813;50.834;4.280;2023-04-01T00:35:42;9.50;;;3.27;;
23288;SDS011;11813;50.834;4.280;2023-04-01T00:38:08;4.63;;;2.27;;
23288;SDS011;11813;50.834;4.280;2023-04-01T00:40:41;6.83;;;2.40;;
23288;SDS011;11813;50.834;4.280;2023-04-01T00:43:18;9.47;;;2.50;;
23288;SDS011;11813;50.834;4.280;2023-04-01T00:45:45;7.00;;;2.10;;
23288;SDS011;11813;50.834;4.280;2023-04-01T00:48:15;6.87;;;2.10;;
23288;SDS011;11813;50.834;4.280;2023-04-01T00:50:50;5.07;;;1.70;;
23288;SDS011;11813;50.834;4.280;2023-04-01T00:53:20;6.33;;;1.93;;
23288;SDS011;11813;50.834;4.280;2023-04-01T00:55:55;6.10;;;1.67;;
23288;SDS011;11813;50.834;4.280;2023-04-01T00:58:24;5.70;;;1.70;;
23288;SDS011;11813;50.834;4.280;2023-04-01T01:00:54;8.03;;;1.67;;
23288;SDS011;11813;50.834;4.280;2023-04-01T01:03:21;3.70;;;1.60;;
23288;SDS011;11813;50.834;4.280;2023-04-01T01:08:39;4.87;;;1.53;;
23288;SDS011;11813;50.834;4.280;2023-04-01T01:11:43;2.73;;;1.30;;
23288;SDS011;11813;50.834;4.280;2023-04-01T01:17:35;5.20;;;1.10;;
23288;SDS011;11813;50.834;4.280;2023-04-01T01:27:58;3.13;;;1.63;;
23288;SDS011;11813;50.834;4.280;2023-04-01T01:30:42;5.67;;;1.93;;
23288;SDS011;11813;50.834;4.280;2023-04-01T01:33:19;6.93;;;2.23;;
23288;SDS011;11813;50.834;4.280;2023-04-01T01:35:58;10.03;;;2.83;;
23288;SDS011;11813;50.834;4.280;2023-04-01T01:38:27;3.57;;;2.07;;
23288;SDS011;11813;50.834;4.280;2023-04-01T01:40:56;6.97;;;2.50;;
23288;SDS011;11813;50.834;4.280;2023-04-01T01:43:24;5.23;;;2.10;;
23288;SDS011;11813;50.834;4.280;2023-04-01T01:45:55;6.27;;;3.37;;
23288;SDS011;11813;50.834;4.280;2023-04-01T01:48:24;8.13;;;3.83;;
23288;SDS011;11813;50.834;4.280;2023-04-01T01:50:52;7.27;;;3.57;;
23288;SDS011;11813;50.834;4.280;2023-04-01T01:53:18;8.10;;;3.73;;
23288;SDS011;11813;50.834;4.280;2023-04-01T01:55:45;6.43;;;3.53;;
23288;SDS011;11813;50.834;4.280;2023-04-01T01:58:22;9.27;;;4.57;;
23288;SDS011;11813;50.834;4.280;2023-04-01T02:00:57;13.03;;;4.87;;
23288;SDS011;11813;50.834;4.280;2023-04-01T02:03:26;12.80;;;6.00;;
23288;SDS011;11813;50.834;4.280;2023-04-01T02:05:55;13.50;;;5.67;;
23288;SDS011;11813;50.834;4.280;2023-04-01T02:08:25;9.77;;;5.20;;
23288;SDS011;11813;50.834;4.280;2023-04-01T02:11:00;9.87;;;4.63;;
23288;SDS011;11813;50.834;4.280;2023-04-01T02:13:34;8.93;;;4.93;;
23288;SDS011;11813;50.834;4.280;2023-04-01T02:16:13;11.87;;;5.93;;
23288;SDS011;11813;50.834;4.280;2023-04-01T02:18:43;8.87;;;4.57;;
23288;SDS011;11813;50.834;4.280;2023-04-01T02:21:10;11.07;;;5.10;;
23288;SDS011;11813;50.834;4.280;2023-04-01T02:23:37;12.53;;;5.23;;
23288;SDS011;11813;50.834;4.280;2023-04-01T02:26:05;7.10;;;4.07;;
23288;SDS011;11813;50.834;4.280;2023-04-01T02:28:33;10.43;;;3.97;;
23288;SDS011;11813;50.834;4.280;2023-04-01T02:31:01;10.87;;;4.20;;
23288;SDS011;11813;50.834;4.280;2023-04-01T02:33:28;11.23;;;4.57;;
23288;SDS011;11813;50.834;4.280;2023-04-01T02:35:55;11.70;;;4.30;;
23288;SDS011;11813;50.834;4.280;2023-04-01T02:38:21;12.23;;;4.40;;
23288;SDS011;11813;50.834;4.280;2023-04-01T02:40:48;10.93;;;3.53;;
23288;SDS011;11813;50.834;4.280;2023-04-01T02:43:16;13.83;;;4.10;;
23288;SDS011;11813;50.834;4.280;2023-04-01T02:45:43;13.07;;;4.17;;
23288;SDS011;11813;50.834;4.280;2023-04-01T02:48:08;9.10;;;3.30;;
23288;SDS011;11813;50.834;4.280;2023-04-01T02:50:34;9.90;;;4.63;;
23288;SDS011;11813;50.834;4.280;2023-04-01T02:53:00;8.90;;;4.00;;
23288;SDS011;11813;50.834;4.280;2023-04-01T02:55:28;6.90;;;3.43;;
23288;SDS011;11813;50.834;4.280;2023-04-01T02:57:55;13.27;;;4.33;;
23288;SDS011;11813;50.834;4.280;2023-04-01T03:00:20;11.60;;;4.40;;
23288;SDS011;11813;50.834;4.280;2023-04-01T03:02:46;10.80;;;4.23;;
23288;SDS011;11813;50.834;4.280;2023-04-01T03:05:12;10.83;;;4.73;;
23288;SDS011;11813;50.834;4.280;2023-04-01T03:07:37;8.03;;;5.03;;
23288;SDS011;11813;50.834;4.280;2023-04-01T03:10:03;13.07;;;5.93;;
23288;SDS011;11813;50.834;4.280;2023-04-01T03:12:30;10.57;;;5.03;;
23288;SDS011;11813;50.834;4.280;2023-04-01T03:14:55;12.23;;;5.40;;
23288;SDS011;11813;50.834;4.280;2023-04-01T03:17:21;11.43;;;5.63;;
23288;SDS011;11813;50.834;4.280;2023-04-01T03:19:46;10.40;;;6.10;;
23288;SDS011;11813;50.834;4.280;2023-04-01T03:22:12;14.03;;;6.17;;
23288;SDS011;11813;50.834;4.280;2023-04-01T03:24:37;13.37;;;6.10;;
23288;SDS011;11813;50.834;4.280;2023-04-01T03:27:03;12.23;;;6.03;;
23288;SDS011;11813;50.834;4.280;2023-04-01T03:29:28;16.67;;;6.37;;
23288;SDS011;11813;50.834;4.280;2023-04-01T03:31:54;17.03;;;6.10;;
23288;SDS011;11813;50.834;4.280;2023-04-01T03:34:22;14.10;;;6.23;;
23288;SDS011;11813;50.834;4.280;2023-04-01T03:36:48;17.90;;;7.40;;
23288;SDS011;11813;50.834;4.280;2023-04-01T03:39:14;12.83;;;6.33;;
23288;SDS011;11813;50.834;4.280;2023-04-01T03:41:43;15.43;;;6.43;;
23288;SDS011;11813;50.834;4.280;2023-04-01T03:44:09;16.53;;;5.70;;
23288;SDS011;11813;50.834;4.280;2023-04-01T03:46:35;13.67;;;6.40;;
23288;SDS011;11813;50.834;4.280;2023-04-01T03:49:00;18.90;;;7.50;;
23288;SDS011;11813;50.834;4.280;2023-04-01T03:51:26;14.80;;;6.30;;
23288;SDS011;11813;50.834;4.280;2023-04-01T03:53:52;18.63;;;7.10;;
23288;SDS011;11813;50.834;4.280;2023-04-01T03:56:17;14.37;;;7.37;;
23288;SDS011;11813;50.834;4.280;2023-04-01T03:58:43;17.93;;;6.93;;
23288;SDS011;11813;50.834;4.280;2023-04-01T04:01:16;13.43;;;6.47;;
23288;SDS011;11813;50.834;4.280;2023-04-01T04:03:44;13.83;;;6.23;;
23288;SDS011;11813;50.834;4.280;2023-04-01T04:06:11;15.00;;;6.43;;
23288;SDS011;11813;50.834;4.280;2023-04-01T04:08:38;11.17;;;5.63;;
23288;SDS011;11813;50.834;4.280;2023-04-01T04:11:04;12.17;;;5.20;;
23288;SDS011;11813;50.834;4.280;2023-04-01T04:13:30;13.37;;;6.53;;
23288;SDS011;11813;50.834;4.280;2023-04-01T04:15:56;17.13;;;5.80;;
23288;SDS011;11813;50.834;4.280;2023-04-01T04:18:21;12.77;;;6.17;;
23288;SDS011;11813;50.834;4.280;2023-04-01T04:20:47;11.00;;;5.53;;
23288;SDS011;11813;50.834;4.280;2023-04-01T04:23:15;15.83;;;6.13;;
23288;SDS011;11813;50.834;4.280;2023-04-01T04:25:40;9.77;;;5.40;;
23288;SDS011;11813;50.834;4.280;2023-04-01T04:28:06;14.30;;;6.00;;
23288;SDS011;11813;50.834;4.280;2023-04-01T04:30:32;9.37;;;4.70;;
23288;SDS011;11813;50.834;4.280;2023-04-01T04:32:57;10.83;;;5.20;;
23288;SDS011;11813;50.834;4.280;2023-04-01T04:35:23;12.47;;;4.73;;
23288;SDS011;11813;50.834;4.280;2023-04-01T04:37:48;10.03;;;4.83;;
23288;SDS011;11813;50.834;4.280;2023-04-01T04:40:14;9.47;;;5.30;;
23288;SDS011;11813;50.834;4.280;2023-04-01T04:42:39;9.00;;;4.80;;
23288;SDS011;11813;50.834;4.280;2023-04-01T04:45:05;7.30;;;4.60;;
23288;SDS011;11813;50.834;4.280;2023-04-01T04:47:31;8.43;;;4.70;;
23288;SDS011;11813;50.834;4.280;2023-04-01T04:49:56;7.03;;;4.20;;
23288;SDS011;11813;50.834;4.280;2023-04-01T04:52:22;7.27;;;4.40;;
23288;SDS011;11813;50.834;4.280;2023-04-01T04:54:47;5.83;;;4.10;;
23288;SDS011;11813;50.834;4.280;2023-04-01T04:57:13;9.43;;;4.23;;
23288;SDS011;11813;50.834;4.280;2023-04-01T04:59:39;7.47;;;4.53;;
23288;SDS011;11813;50.834;4.280;2023-04-01T05:02:05;6.27;;;4.00;;
23288;SDS011;11813;50.834;4.280;2023-04-01T05:04:33;6.50;;;3.50;;
23288;SDS011;11813;50.834;4.280;2023-04-01T05:07:01;8.07;;;3.70;;
23288;SDS011;11813;50.834;4.280;2023-04-01T05:09:26;6.83;;;3.53;;
23288;SDS011;11813;50.834;4.280;2023-04-01T05:11:52;8.67;;;3.97;;
23288;SDS011;11813;50.834;4.280;2023-04-01T05:14:17;12.30;;;5.10;;
23288;SDS011;11813;50.834;4.280;2023-04-01T05:16:43;10.60;;;4.70;;
23288;SDS011;11813;50.834;4.280;2023-04-01T05:19:09;9.90;;;5.47;;
23288;SDS011;11813;50.834;4.280;2023-04-01T05:21:34;7.50;;;4.97;;
23288;SDS011;11813;50.834;4.280;2023-04-01T05:24:00;9.87;;;5.00;;
23288;SDS011;11813;50.834;4.280;2023-04-01T05:26:25;11.23;;;5.53;;
23288;SDS011;11813;50.834;4.280;2023-04-01T05:28:51;8.40;;;4.93;;
23288;SDS011;11813;50.834;4.280;2023-04-01T05:31:16;11.47;;;5.97;;
23288;SDS011;11813;50.834;4.280;2023-04-01T05:33:42;9.93;;;5.87;;
23288;SDS011;11813;50.834;4.280;2023-04-01T05:36:09;9.77;;;5.37;;
23288;SDS011;11813;50.834;4.280;2023-04-01T05:38:36;12.13;;;5.63;;
23288;SDS011;11813;50.834;4.280;2023-04-01T05:41:02;11.70;;;6.27;;
23288;SDS011;11813;50.834;4.280;2023-04-01T05:43:28;13.13;;;6.70;;
23288;SDS011;11813;50.834;4.280;2023-04-01T05:45:55;13.80;;;6.87;;
23288;SDS011;11813;50.834;4.280;2023-04-01T05:48:21;17.20;;;7.77;;
23288;SDS011;11813;50.834;4.280;2023-04-01T05:50:46;13.30;;;6.43;;
23288;SDS011;11813;50.834;4.280;2023-04-01T05:53:12;16.50;;;7.37;;
23288;SDS011;11813;50.834;4.280;2023-04-01T05:55:37;13.27;;;7.57;;
23288;SDS011;11813;50.834;4.280;2023-04-01T05:58:03;13.80;;;7.97;;
23288;SDS011;11813;50.834;4.280;2023-04-01T06:00:29;16.13;;;7.27;;
23288;SDS011;11813;50.834;4.280;2023-04-01T06:02:56;19.73;;;9.03;;
23288;SDS011;11813;50.834;4.280;2023-04-01T06:05:26;16.57;;;7.67;;
23288;SDS011;11813;50.834;4.280;2023-04-01T06:08:05;17.23;;;7.73;;
23288;SDS011;11813;50.834;4.280;2023-04-01T06:27:43;16.37;;;7.63;;
23288;SDS011;11813;50.834;4.280;2023-04-01T06:32:40;13.77;;;7.27;;
23288;SDS011;11813;50.834;4.280;2023-04-01T06:38:29;12.90;;;6.93;;
23288;SDS011;11813;50.834;4.280;2023-04-01T06:42:15;14.53;;;7.30;;
23288;SDS011;11813;50.834;4.280;2023-04-01T06:47:10;15.17;;;7.03;;
23288;SDS011;11813;50.834;4.280;2023-04-01T06:55:12;11.83;;;5.77;;
23288;SDS011;11813;50.834;4.280;2023-04-01T06:57:51;12.10;;;6.60;;
23288;SDS011;11813;50.834;4.280;2023-04-01T07:02:55;15.17;;;4.77;;
23288;SDS011;11813;50.834;4.280;2023-04-01T07:05:40;10.53;;;6.03;;
23288;SDS011;11813;50.834;4.280;2023-04-01T07:08:08;10.27;;;5.70;;
23288;SDS011;11813;50.834;4.280;2023-04-01T07:10:43;7.27;;;4.43;;
23288;SDS011;11813;50.834;4.280;2023-04-01T07:13:16;8.43;;;5.30;;
23288;SDS011;11813;50.834;4.280;2023-04-01T07:18:34;7.33;;;4.43;;
23288;SDS011;11813;50.834;4.280;2023-04-01T07:21:09;8.77;;;4.57;;
23288;SDS011;11813;50.834;4.280;2023-04-01T07:24:02;8.73;;;3.93;;
23288;SDS011;11813;50.834;4.280;2023-04-01T07:26:31;6.70;;;3.90;;
23288;SDS011;11813;50.834;4.280;2023-04-01T07:28:57;4.07;;;2.60;;
23288;SDS011;11813;50.834;4.280;2023-04-01T07:37:27;5.57;;;3.53;;
23288;SDS011;11813;50.834;4.280;2023-04-01T07:45:23;5.00;;;2.53;;
23288;SDS011;11813;50.834;4.280;2023-04-01T07:48:02;3.83;;;1.93;;
23288;SDS011;11813;50.834;4.280;2023-04-01T08:03:48;2.53;;;2.00;;
23288;SDS011;11813;50.834;4.280;2023-04-01T08:06:28;2.27;;;1.73;;
23288;SDS011;11813;50.834;4.280;2023-04-01T08:17:16;3.43;;;2.10;;
23288;SDS011;11813;50.834;4.280;2023-04-01T08:22:52;2.77;;;2.57;;
23288;SDS011;11813;50.834;4.280;2023-04-01T08:25:24;4.47;;;1.70;;
23288;SDS011;11813;50.834;4.280;2023-04-01T08:28:15;2.20;;;1.70;;
23288;SDS011;11813;50.834;4.280;2023-04-01T08:33:20;2.40;;;1.60;;
23288;SDS011;11813;50.834;4.280;2023-04-01T08:35:54;2.90;;;1.60;;
23288;SDS011;11813;50.834;4.280;2023-04-01T08:38:30;1.50;;;1.40;;
23288;SDS011;11813;50.834;4.280;2023-04-01T08:46:13;3.33;;;1.53;;
23288;SDS011;11813;50.834;4.280;2023-04-01T08:49:07;1.27;;;1.17;;
23288;SDS011;11813;50.834;4.280;2023-04-01T08:57:31;1.60;;;1.50;;
23288;SDS011;11813;50.834;4.280;2023-04-01T09:08:51;2.33;;;1.73;;
23288;SDS011;11813;50.834;4.280;2023-04-01T09:31:03;2.77;;;2.30;;
23288;SDS011;11813;50.834;4.280;2023-04-01T09:36:47;6.47;;;2.07;;
23288;SDS011;11813;50.834;4.280;2023-04-01T09:42:13;2.53;;;2.07;;
23288;SDS011;11813;50.834;4.280;2023-04-01T09:45:00;1.93;;;1.80;;
23288;SDS011;11813;50.834;4.280;2023-04-01T09:47:45;5.73;;;2.27;;
23288;SDS011;11813;50.834;4.280;2023-04-01T09:53:17;2.33;;;2.00;;
23288;SDS011;11813;50.834;4.280;2023-04-01T10:16:30;3.40;;;1.83;;
23288;SDS011;11813;50.834;4.280;2023-04-01T10:19:31;3.07;;;1.93;;
23288;SDS011;11813;50.834;4.280;2023-04-01T10:22:17;1.60;;;1.50;;
23288;SDS011;11813;50.834;4.280;2023-04-01T10:50:34;2.13;;;1.87;;
23288;SDS011;11813;50.834;4.280;2023-04-01T11:10:29;2.70;;;2.50;;
23288;SDS011;11813;50.834;4.280;2023-04-01T11:13:21;3.73;;;2.60;;
23288;SDS011;11813;50.834;4.280;2023-04-01T11:18:43;3.23;;;2.87;;
23288;SDS011;11813;50.834;4.280;2023-04-01T11:29:35;2.27;;;2.07;;
23288;SDS011;11813;50.834;4.280;2023-04-01T11:42:40;2.67;;;2.00;;
23288;SDS011;11813;50.834;4.280;2023-04-01T11:45:26;5.10;;;2.30;;
23288;SDS011;11813;50.834;4.280;2023-04-01T11:59:18;4.03;;;2.93;;
23288;SDS011;11813;50.834;4.280;2023-04-01T12:07:03;4.43;;;2.70;;
23288;SDS011;11813;50.834;4.280;2023-04-01T12:09:56;3.80;;;2.80;;
23288;SDS011;11813;50.834;4.280;2023-04-01T12:12:42;5.40;;;2.60;;
23288;SDS011;11813;50.834;4.280;2023-04-01T12:20:39;3.20;;;2.43;;
23288;SDS011;11813;50.834;4.280;2023-04-01T12:28:41;7.83;;;3.33;;
23288;SDS011;11813;50.834;4.280;2023-04-01T12:42:14;7.67;;;4.23;;
23288;SDS011;11813;50.834;4.280;2023-04-01T12:56:09;5.00;;;4.07;;
23288;SDS011;11813;50.834;4.280;2023-04-01T13:04:51;5.50;;;2.33;;
23288;SDS011;11813;50.834;4.280;2023-04-01T13:07:51;2.97;;;2.10;;
23288;SDS011;11813;50.834;4.280;2023-04-01T13:10:28;4.30;;;2.23;;
23288;SDS011;11813;50.834;4.280;2023-04-01T13:25:54;1.60;;;1.50;;
23288;SDS011;11813;50.834;4.280;2023-04-01T13:28:47;3.13;;;1.90;;
23288;SDS011;11813;50.834;4.280;2023-04-01T13:37:52;3.97;;;2.10;;
23288;SDS011;11813;50.834;4.280;2023-04-01T13:43:23;2.03;;;1.83;;
23288;SDS011;11813;50.834;4.280;2023-04-01T13:51:17;2.30;;;2.10;;
23288;SDS011;11813;50.834;4.280;2023-04-01T13:56:41;2.97;;;1.77;;
23288;SDS011;11813;50.834;4.280;2023-04-01T14:13:01;2.20;;;1.60;;
23288;SDS011;11813;50.834;4.280;2023-04-01T14:30:42;2.77;;;1.43;;
23288;SDS011;11813;50.834;4.280;2023-04-01T14:36:01;1.40;;;1.30;;
23288;SDS011;11813;50.834;4.280;2023-04-01T14:41:20;2.30;;;1.10;;
23288;SDS011;11813;50.834;4.280;2023-04-01T14:44:11;3.43;;;1.23;;
23288;SDS011;11813;50.834;4.280;2023-04-01T14:49:47;1.90;;;1.23;;
23288;SDS011;11813;50.834;4.280;2023-04-01T14:54:46;1.83;;;1.00;;
23288;SDS011;11813;50.834;4.280;2023-04-01T14:57:15;2.03;;;1.40;;
23288;SDS011;11813;50.834;4.280;2023-04-01T14:59:53;1.37;;;1.27;;
23288;SDS011;11813;50.834;4.280;2023-04-01T15:05:27;1.47;;;1.37;;
23288;SDS011;11813;50.834;4.280;2023-04-01T15:18:56;2.00;;;1.40;;
23288;SDS011;11813;50.834;4.280;2023-04-01T15:21:42;1.83;;;1.30;;
23288;SDS011;11813;50.834;4.280;2023-04-01T15:29:43;1.90;;;1.00;;
23288;SDS011;11813;50.834;4.280;2023-04-01T15:37:59;2.83;;;1.50;;
23288;SDS011;11813;50.834;4.280;2023-04-01T15:43:32;3.33;;;1.60;;
23288;SDS011;11813;50.834;4.280;2023-04-01T15:49:27;1.83;;;1.03;;
23288;SDS011;11813;50.834;4.280;2023-04-01T15:52:15;1.50;;;1.37;;
23288;SDS011;11813;50.834;4.280;2023-04-01T15:57:45;2.13;;;1.30;;
23288;SDS011;11813;50.834;4.280;2023-04-01T16:00:28;1.30;;;1.20;;
23288;SDS011;11813;50.834;4.280;2023-04-01T16:05:43;0.70;;;0.70;;
23288;SDS011;11813;50.834;4.280;2023-04-01T16:33:26;3.90;;;1.50;;
23288;SDS011;11813;50.834;4.280;2023-04-01T16:39:06;1.57;;;1.30;;
23288;SDS011;11813;50.834;4.280;2023-04-01T16:41:52;2.23;;;1.50;;
23288;SDS011;11813;50.834;4.280;2023-04-01T16:44:24;1.83;;;1.43;;
23288;SDS011;11813;50.834;4.280;2023-04-01T16:46:52;1.90;;;1.27;;
23288;SDS011;11813;50.834;4.280;2023-04-01T16:49:25;2.37;;;1.87;;
23288;SDS011;11813;50.834;4.280;2023-04-01T16:54:39;1.97;;;1.47;;
23288;SDS011;11813;50.834;4.280;2023-04-01T17:00:27;2.33;;;1.70;;
23288;SDS011;11813;50.834;4.280;2023-04-01T17:11:21;2.20;;;1.60;;
23288;SDS011;11813;50.834;4.280;2023-04-01T17:32:57;2.37;;;1.90;;
23288;SDS011;11813;50.834;4.280;2023-04-01T17:35:40;2.40;;;2.20;;
23288;SDS011;11813;50.834;4.280;2023-04-01T17:38:24;5.03;;;2.30;;
23288;SDS011;11813;50.834;4.280;2023-04-01T17:54:33;4.03;;;2.57;;
23288;SDS011;11813;50.834;4.280;2023-04-01T18:08:10;2.50;;;2.27;;
23288;SDS011;11813;50.834;4.280;2023-04-01T18:14:07;5.70;;;3.33;;
23288;SDS011;11813;50.834;4.280;2023-04-01T18:25:13;4.93;;;4.00;;
23288;SDS011;11813;50.834;4.280;2023-04-01T18:27:47;6.00;;;3.60;;
23288;SDS011;11813;50.834;4.280;2023-04-01T18:30:18;4.40;;;4.00;;
23288;SDS011;11813;50.834;4.280;2023-04-01T18:32:50;6.10;;;3.93;;
23288;SDS011;11813;50.834;4.280;2023-04-01T18:38:18;5.17;;;3.83;;
23288;SDS011;11813;50.834;4.280;2023-04-01T18:49:17;5.43;;;4.70;;
23288;SDS011;11813;50.834;4.280;2023-04-01T18:51:59;7.43;;;4.77;;
23288;SDS011;11813;50.834;4.280;2023-04-01T18:57:25;8.47;;;5.40;;
23288;SDS011;11813;50.834;4.280;2023-04-01T19:00:08;7.70;;;5.50;;
23288;SDS011;11813;50.834;4.280;2023-04-01T19:03:07;7.00;;;5.33;;
23288;SDS011;11813;50.834;4.280;2023-04-01T19:05:51;13.37;;;6.87;;
23288;SDS011;11813;50.834;4.280;2023-04-01T19:08:30;11.03;;;6.77;;
23288;SDS011;11813;50.834;4.280;2023-04-01T19:11:12;11.30;;;7.43;;
23288;SDS011;11813;50.834;4.280;2023-04-01T19:14:03;14.17;;;9.10;;
23288;SDS011;11813;50.834;4.280;2023-04-01T19:16:55;13.03;;;8.97;;
23288;SDS011;11813;50.834;4.280;2023-04-01T19:22:57;15.13;;;9.80;;
23288;SDS011;11813;50.834;4.280;2023-04-01T19:30:57;16.37;;;10.90;;
23288;SDS011;11813;50.834;4.280;2023-04-01T19:33:40;21.27;;;11.37;;
23288;SDS011;11813;50.834;4.280;2023-04-01T19:39:05;17.07;;;10.53;;
23288;SDS011;11813;50.834;4.280;2023-04-01T19:41:58;19.30;;;12.23;;
23288;SDS011;11813;50.834;4.280;2023-04-01T19:44:58;14.50;;;9.30;;
23288;SDS011;11813;50.834;4.280;2023-04-01T19:48:01;20.40;;;11.80;;
23288;SDS011;11813;50.834;4.280;2023-04-01T19:50:53;23.67;;;12.43;;
23288;SDS011;11813;50.834;4.280;2023-04-01T19:58:49;19.40;;;12.40;;
23288;SDS011;11813;50.834;4.280;2023-04-01T20:04:42;22.00;;;12.60;;
23288;SDS011;11813;50.834;4.280;2023-04-01T20:07:08;23.60;;;12.93;;
23288;SDS011;11813;50.834;4.280;2023-04-01T20:15:00;24.00;;;13.77;;
23288;SDS011;11813;50.834;4.280;2023-04-01T20:36:41;17.50;;;11.23;;
23288;SDS011;11813;50.834;4.280;2023-04-01T20:39:38;19.67;;;10.43;;
23288;SDS011;11813;50.834;4.280;2023-04-01T20:48:16;17.80;;;10.53;;
23288;SDS011;11813;50.834;4.280;2023-04-01T20:50:51;21.73;;;10.77;;
23288;SDS011;11813;50.834;4.280;2023-04-01T20:53:27;18.43;;;11.00;;
23288;SDS011;11813;50.834;4.280;2023-04-01T21:06:34;27.23;;;15.83;;
23288;SDS011;11813;50.834;4.280;2023-04-01T21:09:16;37.93;;;16.50;;
23288;SDS011;11813;50.834;4.280;2023-04-01T21:17:26;29.30;;;16.20;;
23288;SDS011;11813;50.834;4.280;2023-04-01T21:20:13;36.33;;;17.40;;
23288;SDS011;11813;50.834;4.280;2023-04-01T21:46:04;33.10;;;16.53;;
23288;SDS011;11813;50.834;4.280;2023-04-01T22:00:31;28.93;;;13.77;;
23288;SDS011;11813;50.834;4.280;2023-04-01T22:06:12;21.30;;;12.43;;
23288;SDS011;11813;50.834;4.280;2023-04-01T22:11:48;18.67;;;12.43;;
23288;SDS011;11813;50.834;4.280;2023-04-01T22:14:32;22.70;;;12.80;;
23288;SDS011;11813;50.834;4.280;2023-04-01T22:25:54;21.03;;;11.67;;
23288;SDS011;11813;50.834;4.280;2023-04-01T22:31:35;20.57;;;12.43;;
23288;SDS011;11813;50.834;4.280;2023-04-01T22:37:30;21.70;;;13.00;;
23288;SDS011;11813;50.834;4.280;2023-04-01T22:50:28;18.97;;;13.17;;
23288;SDS011;11813;50.834;4.280;2023-04-01T22:55:46;20.87;;;13.77;;
23288;SDS011;11813;50.834;4.280;2023-04-01T22:58:16;16.63;;;12.17;;
23288;SDS011;11813;50.834;4.280;2023-04-01T23:00:51;17.63;;;12.40;;
23288;SDS011;11813;50.834;4.280;2023-04-01T23:03:34;20.30;;;12.03;;
23288;SDS011;11813;50.834;4.280;2023-04-01T23:06:05;18.50;;;12.03;;
23288;SDS011;11813;50.834;4.280;2023-04-01T23:11:26;20.20;;;11.87;;
23288;SDS011;11813;50.834;4.280;2023-04-01T23:16:53;17.30;;;12.60;;
23288;SDS011;11813;50.834;4.280;2023-04-01T23:27:29;32.80;;;20.30;;
23288;SDS011;11813;50.834;4.280;2023-04-01T23:30:02;28.73;;;20.47;;
23288;SDS011;11813;50.834;4.280;2023-04-01T23:32:28;32.77;;;20.70;;
23288;SDS011;11813;50.834;4.280;2023-04-01T23:34:55;31.90;;;20.10;;
23288;SDS011;11813;50.834;4.280;2023-04-01T23:37:23;31.47;;;20.43;;
23288;SDS011;11813;50.834;4.280;2023-04-01T23:39:54;34.23;;;21.50;;
23288;SDS011;11813;50.834;4.280;2023-04-01T23:42:26;33.00;;;22.13;;
23288;SDS011;11813;50.834;4.280;2023-04-01T23:45:14;31.97;;;21.63;;
23288;SDS011;11813;50.834;4.280;2023-04-01T23:47:44;34.53;;;20.27;;
23288;SDS011;11813;50.834;4.280;2023-04-01T23:50:14;34.93;;;20.03;;
23288;SDS011;11813;50.834;4.280;2023-04-01T23:52:45;28.03;;;19.60;;
23288;SDS011;11813;50.834;4.280;2023-04-01T23:55:15;30.53;;;18.63;;
